createdAt,value
2023-01-13T00:07:32.142Z,97481.15
2023-01-13T00:11:40.577Z,97471.13
2023-01-13T00:15:55.659Z,97464.82
2023-01-13T00:20:12.365Z,97459.88
2023-01-13T00:24:43.028Z,97456.57
2023-01-13T00:28:49.347Z,97454.16
2023-01-13T00:33:08.014Z,97459.08
2023-01-13T00:41:40.398Z,97473.43
2023-01-13T00:45:58.896Z,97473.11
2023-01-13T00:50:17.971Z,97477.20
2023-01-13T00:59:02.489Z,97487.27
2023-01-13T01:03:32.384Z,97486.52
2023-01-13T01:08:01.761Z,97482.83
2023-01-13T01:12:18.867Z,97480.55
2023-01-13T01:20:53.263Z,97471.50
2023-01-13T01:25:11.231Z,97465.23
2023-01-13T01:29:41.784Z,97458.33
2023-01-13T01:34:10.355Z,97447.73
2023-01-13T01:42:54.381Z,97433.95
2023-01-13T01:47:24.676Z,97428.36
2023-01-13T01:51:41.609Z,97427.61
2023-01-13T01:56:11.934Z,97422.99
2023-01-13T02:00:30.067Z,97414.89
2023-01-13T02:04:59.017Z,97401.68
2023-01-13T02:09:16.113Z,97395.87
2023-01-13T02:18:02.501Z,97390.74
2023-01-13T02:22:55.142Z,97391.63
2023-01-13T02:31:39.530Z,97374.53
2023-01-13T02:36:20.948Z,97371.52
2023-01-13T02:40:32.446Z,97370.05
2023-01-13T02:44:59.829Z,97378.02
2023-01-13T02:49:16.213Z,97372.42
2023-01-13T02:53:34.730Z,97368.70
2023-01-13T03:01:59.141Z,97358.71
2023-01-13T03:06:07.217Z,97357.84
2023-01-13T03:10:40.468Z,97365.70
2023-01-13T03:15:05.027Z,97358.95
2023-01-13T03:19:41.663Z,97354.91
2023-01-13T03:24:03.900Z,97351.02
2023-01-13T03:28:24.554Z,97354.28
2023-01-13T03:32:32.856Z,97347.81
2023-01-13T03:36:49.367Z,97346.97
2023-01-13T03:41:26.788Z,97346.53
2023-01-13T03:45:45.373Z,97354.83
2023-01-13T03:50:04.581Z,97360.94
2023-01-13T03:54:14.988Z,97361.04
2023-01-13T04:03:07.065Z,97360.18
2023-01-13T04:11:40.420Z,97357.19
2023-01-13T04:15:56.990Z,97353.95
2023-01-13T04:20:02.188Z,97349.17
2023-01-13T04:24:07.551Z,97351.92
2023-01-13T04:28:13.007Z,97352.15
2023-01-13T04:32:18.415Z,97354.56
2023-01-13T04:36:23.780Z,97354.58
2023-01-13T04:40:31.159Z,97345.77
2023-01-13T04:44:36.545Z,97355.36
2023-01-13T04:48:41.911Z,97357.01
2023-01-13T04:52:47.298Z,97347.23
2023-01-13T04:56:54.735Z,97346.89
2023-01-13T05:01:00.160Z,97346.96
2023-01-13T05:09:18.864Z,97343.50
2023-01-13T05:13:31.214Z,97343.15
2023-01-13T05:17:38.269Z,97345.70
2023-01-13T05:21:50.603Z,97346.36
2023-01-13T05:25:55.940Z,97348.48
2023-01-13T05:34:19.377Z,97353.23
2023-01-13T05:38:24.722Z,97345.14
2023-01-13T05:42:36.839Z,97341.80
2023-01-13T05:55:18.859Z,97343.52
2023-01-13T05:59:37.708Z,97336.45
2023-01-13T06:12:18.568Z,97342.77
2023-01-13T06:16:45.894Z,97348.66
2023-01-13T06:25:06.167Z,97348.29
2023-01-13T06:29:12.461Z,97359.02
2023-01-13T06:33:16.962Z,97360.27
2023-01-13T06:37:33.194Z,97363.61
2023-01-13T06:41:44.476Z,97366.16
2023-01-13T06:45:45.389Z,97368.31
2023-01-13T06:49:35.347Z,97365.73
2023-01-13T06:53:27.379Z,97357.92
2023-01-13T06:57:29.239Z,97358.06
2023-01-13T07:07:16.502Z,97366.73
2023-01-13T07:11:23.662Z,97368.20
2023-01-13T07:15:31.025Z,97365.75
2023-01-13T07:20:01.509Z,97373.77
2023-01-13T07:24:07.801Z,97370.54
2023-01-13T07:32:39.471Z,97372.31
2023-01-13T07:36:54.846Z,97365.74
2023-01-13T07:41:11.932Z,97363.73
2023-01-13T07:45:28.502Z,97362.26
2023-01-13T07:49:49.085Z,97364.99
2023-01-13T07:58:19.776Z,97380.94
2023-01-13T08:02:37.691Z,97371.40
2023-01-13T08:06:53.082Z,97373.59
2023-01-13T08:11:10.331Z,97372.64
2023-01-13T08:19:58.329Z,97374.04
2023-01-13T08:32:53.596Z,97357.43
2023-01-13T08:37:20.286Z,97367.85
2023-01-13T08:41:59.917Z,97370.78
2023-01-13T08:46:18.314Z,97377.41
2023-01-13T08:50:46.759Z,97367.88
2023-01-13T08:55:14.304Z,97371.75
2023-01-13T09:03:56.077Z,97368.96
2023-01-13T09:08:10.166Z,97376.08
2023-01-13T09:13:53.881Z,97367.11
2023-01-13T09:18:25.696Z,97370.54
2023-01-13T09:27:14.961Z,97374.00
2023-01-13T09:31:46.426Z,97373.43
2023-01-13T09:40:32.749Z,97354.30
2023-01-13T09:45:07.549Z,97344.42
2023-01-13T09:49:59.030Z,97337.46
2023-01-13T09:53:28.566Z,97334.95
2023-01-13T09:57:08.039Z,97335.95
2023-01-13T10:10:36.095Z,97302.89
2023-01-13T10:19:24.051Z,97287.98
2023-01-13T10:23:29.064Z,97292.95
2023-01-13T10:27:38.112Z,97290.55
2023-01-13T10:31:46.748Z,97289.88
2023-01-13T10:36:05.072Z,97290.84
2023-01-13T10:39:49.846Z,97290.49
2023-01-13T10:52:17.072Z,97287.15
2023-01-13T10:56:03.927Z,97285.72
2023-01-13T11:00:10.773Z,97285.48
2023-01-13T11:04:18.875Z,97283.84
2023-01-13T11:08:29.864Z,97276.08
2023-01-13T11:20:50.680Z,97260.64
2023-01-13T11:28:29.875Z,97262.77
2023-01-13T11:32:56.378Z,97260.23
2023-01-13T11:37:08.612Z,97249.73
2023-01-13T11:41:20.631Z,97245.96
2023-01-13T11:45:19.679Z,97243.36
2023-01-13T11:49:06.607Z,97240.99
2023-01-13T11:53:31.303Z,97241.19
2023-01-13T12:05:45.567Z,97246.23
2023-01-13T12:13:34.527Z,97240.57
2023-01-13T12:17:36.550Z,97242.06
2023-01-13T12:22:00.461Z,97244.92
2023-01-13T12:25:47.540Z,97233.83
2023-01-13T12:33:29.565Z,97218.52
2023-01-13T12:45:53.487Z,97225.83
2023-01-13T12:49:40.598Z,97227.35
2023-01-13T12:54:02.511Z,97218.34
2023-01-13T12:58:02.316Z,97217.00
2023-01-13T13:09:41.504Z,97220.59
2023-01-13T13:13:41.494Z,97224.13
2023-01-13T13:17:52.490Z,97226.42
2023-01-13T13:29:42.054Z,97237.34
2023-01-13T13:33:25.215Z,97236.85
2023-01-13T13:37:21.475Z,97236.98
2023-01-13T13:41:27.535Z,97238.77
2023-01-13T13:45:21.299Z,97236.50
2023-01-13T13:49:30.399Z,97237.27
2023-01-13T13:53:47.227Z,97235.40
2023-01-13T14:05:42.479Z,97233.13
2023-01-13T14:09:37.390Z,97233.02
2023-01-13T14:16:59.451Z,97241.51
2023-01-13T14:20:57.356Z,97249.95
2023-01-13T14:24:57.517Z,97254.32
2023-01-13T14:28:55.358Z,97259.16
2023-01-13T14:33:06.342Z,97264.36
2023-01-13T14:37:04.347Z,97277.98
2023-01-13T14:41:12.314Z,97291.02
2023-01-13T14:45:09.134Z,97286.89
2023-01-13T14:49:18.095Z,97285.47
2023-01-13T14:56:54.296Z,97294.15
2023-01-13T15:00:41.274Z,97294.63
2023-01-13T15:04:40.272Z,97298.70
2023-01-13T15:08:45.342Z,97305.23
2023-01-13T15:12:41.248Z,97312.20
2023-01-13T15:16:32.834Z,97311.99
2023-01-13T15:20:22.246Z,97310.88
2023-01-13T15:24:09.298Z,97312.19
2023-01-13T15:27:56.239Z,97314.05
2023-01-13T15:31:56.106Z,97313.10
2023-01-13T15:36:30.232Z,97320.59
2023-01-13T15:39:45.265Z,97320.02
2023-01-13T15:43:50.201Z,97319.46
2023-01-13T15:47:49.272Z,97320.55
2023-01-13T15:55:30.233Z,97316.79
2023-01-13T15:59:52.223Z,97326.37
2023-01-13T16:03:15.353Z,97319.44
2023-01-13T16:06:24.563Z,97315.38
2023-01-13T16:10:19.321Z,97322.47
2023-01-13T16:13:58.211Z,97320.95
2023-01-13T16:18:21.126Z,97321.20
2023-01-13T16:22:22.402Z,97325.04
2023-01-13T16:26:52.275Z,97337.55
2023-01-13T16:31:08.761Z,97338.11
2023-01-13T16:35:12.365Z,97334.83
2023-01-13T16:43:19.918Z,97334.94
2023-01-13T16:47:34.243Z,97329.93
2023-01-13T16:51:17.956Z,97328.27
2023-01-13T16:56:02.753Z,97329.78
2023-01-13T16:59:28.031Z,97337.07
2023-01-13T17:03:30.949Z,97338.27
2023-01-13T17:07:57.839Z,97334.58
2023-01-13T17:11:44.817Z,97329.44
2023-01-13T17:15:53.055Z,97319.89
2023-01-13T17:20:12.824Z,97319.27
2023-01-13T17:24:29.866Z,97321.73
2023-01-13T17:31:37.671Z,97313.90
2023-01-13T17:34:48.780Z,97314.20
2023-01-13T17:37:53.846Z,97319.94
2023-01-13T17:41:04.883Z,97320.29
2023-01-13T17:44:31.511Z,97323.64
2023-01-13T17:47:41.482Z,97320.35
2023-01-13T17:50:50.364Z,97328.04
2023-01-13T17:54:15.239Z,97330.84
2023-01-13T17:57:38.347Z,97333.48
2023-01-13T18:00:46.018Z,97333.11
2023-01-13T18:04:21.953Z,97334.41
2023-01-13T18:07:29.043Z,97331.84
2023-01-13T18:10:34.077Z,97337.16
2023-01-13T18:14:17.798Z,97339.98
2023-01-13T18:17:21.595Z,97346.91
2023-01-13T18:20:42.999Z,97355.60
2023-01-13T18:24:04.666Z,97354.63
2023-01-13T18:27:24.424Z,97359.75
2023-01-13T18:30:27.391Z,97360.42
2023-01-13T18:33:30.510Z,97363.39
2023-01-13T18:36:33.787Z,97370.89
2023-01-13T18:39:37.604Z,97380.58
2023-01-13T18:42:56.425Z,97383.81
2023-01-13T18:45:59.709Z,97395.13
2023-01-13T18:49:02.961Z,97394.22
2023-01-13T18:52:06.297Z,97403.62
2023-01-13T18:55:10.601Z,97407.70
2023-01-13T18:58:13.709Z,97412.82
2023-01-13T19:01:16.968Z,97417.15
2023-01-13T19:04:20.201Z,97418.42
2023-01-13T19:07:27.108Z,97425.88
2023-01-13T19:10:32.712Z,97438.87
2023-01-13T19:13:36.594Z,97447.14
2023-01-13T19:16:39.772Z,97453.16
2023-01-13T19:19:49.018Z,97457.15
2023-01-13T19:22:54.546Z,97459.34
2023-01-13T19:26:02.279Z,97463.41
2023-01-13T19:29:05.314Z,97467.31
2023-01-13T19:32:08.478Z,97470.48
2023-01-13T19:35:13.224Z,97475.42
2023-01-13T19:38:16.231Z,97476.03
2023-01-13T19:41:38.237Z,97480.77
2023-01-13T19:44:59.792Z,97489.05
2023-01-13T19:48:05.285Z,97492.36
2023-01-13T19:51:08.512Z,97501.10
2023-01-13T19:54:11.529Z,97505.52
2023-01-13T19:57:15.319Z,97513.45
2023-01-13T20:00:21.155Z,97516.89
2023-01-13T20:03:27.021Z,97524.11
2023-01-13T20:06:31.946Z,97526.80
2023-01-13T20:09:35.900Z,97522.10
2023-01-13T20:12:39.771Z,97530.92
2023-01-13T20:15:44.139Z,97539.73
2023-01-13T20:18:51.649Z,97550.38
2023-01-13T20:21:54.588Z,97556.75
2023-01-13T20:24:57.687Z,97553.09
2023-01-13T20:28:02.409Z,97547.65
2023-01-13T20:31:07.986Z,97543.77
2023-01-13T20:34:11.567Z,97523.95
2023-01-13T20:37:14.687Z,97535.98
2023-01-13T20:40:18.569Z,97547.98
2023-01-13T20:43:21.558Z,97550.42
2023-01-13T20:46:24.674Z,97551.30
2023-01-13T20:49:28.172Z,97559.73
2023-01-13T20:52:58.469Z,97563.91
2023-01-13T20:57:14.445Z,97570.35
2023-01-13T21:00:51.900Z,97570.77
2023-01-13T21:04:48.063Z,97568.84
2023-01-13T21:08:59.557Z,97569.30
2023-01-13T21:12:47.571Z,97569.89
2023-01-13T21:16:25.812Z,97562.13
2023-01-13T21:19:42.838Z,97566.77
2023-01-13T21:22:48.242Z,97572.13
2023-01-13T21:26:12.208Z,97575.77
2023-01-13T21:29:23.565Z,97575.42
2023-01-13T21:33:35.726Z,97581.67
2023-01-13T21:37:54.933Z,97583.81
2023-01-13T21:41:28.888Z,97592.74
2023-01-13T21:45:33.388Z,97591.69
2023-01-13T21:49:01.517Z,97591.83
2023-01-13T21:52:09.938Z,97593.27
2023-01-13T21:55:30.316Z,97592.15
2023-01-13T21:59:00.880Z,97599.47
2023-01-13T22:02:36.936Z,97599.08
2023-01-13T22:05:56.773Z,97597.80
2023-01-13T22:09:28.444Z,97604.48
2023-01-13T22:12:36.617Z,97601.71
2023-01-13T22:15:56.999Z,97604.40
2023-01-13T22:19:17.713Z,97601.75
2023-01-13T22:22:49.632Z,97601.95
2023-01-13T22:26:14.111Z,97601.09
2023-01-13T22:29:19.854Z,97605.55
2023-01-13T22:32:39.003Z,97606.32
2023-01-13T22:35:58.287Z,97607.65
2023-01-13T22:39:03.946Z,97609.65
2023-01-13T22:42:09.223Z,97614.30
2023-01-13T22:45:22.022Z,97628.66
2023-01-13T22:48:58.211Z,97639.28
2023-01-13T22:52:14.167Z,97662.11
2023-01-13T22:55:54.143Z,97663.52
2023-01-13T22:59:11.637Z,97665.89
2023-01-13T23:02:15.008Z,97660.48
2023-01-13T23:05:35.585Z,97655.79
2023-01-13T23:08:50.168Z,97645.86
2023-01-13T23:12:05.535Z,97640.48
2023-01-13T23:15:47.857Z,97639.47
2023-01-13T23:24:34.857Z,97652.14
2023-01-13T23:27:46.605Z,97664.23
2023-01-13T23:30:58.739Z,97656.38
2023-01-13T23:34:26.149Z,97657.92
2023-01-13T23:38:07.608Z,97650.77
2023-01-13T23:41:36.471Z,97656.16
2023-01-13T23:44:41.137Z,97656.48
2023-01-13T23:47:50.555Z,97658.51
2023-01-13T23:51:04.324Z,97657.85
2023-01-13T23:54:10.193Z,97652.12
